createdAt,value
2022-10-28T00:01:55.583Z,17.00
2022-10-28T00:07:57.249Z,17.00
2022-10-28T00:14:00.790Z,17.00
2022-10-28T00:20:02.515Z,16.90
2022-10-28T00:26:12.231Z,16.70
2022-10-28T00:32:13.896Z,16.60
2022-10-28T00:38:15.562Z,16.60
2022-10-28T00:44:35.975Z,16.30
2022-10-28T00:50:49.016Z,16.10
2022-10-28T00:56:53.049Z,16.00
2022-10-28T01:02:55.436Z,16.00
2022-10-28T01:08:59.942Z,16.00
2022-10-28T01:15:19.970Z,15.90
2022-10-28T01:21:40.582Z,16.00
2022-10-28T01:27:59.986Z,16.30
2022-10-28T01:34:19.881Z,16.60
2022-10-28T01:40:47.889Z,16.70
2022-10-28T01:46:58.700Z,16.80
2022-10-28T01:53:02.711Z,16.80
2022-10-28T01:59:05.750Z,16.80
2022-10-28T02:05:27.999Z,16.90
2022-10-28T02:11:48.162Z,16.90
2022-10-28T02:18:06.644Z,16.60
2022-10-28T02:24:17.855Z,16.30
2022-10-28T02:30:21.743Z,16.40
2022-10-28T02:36:25.678Z,16.50
2022-10-28T02:42:28.692Z,16.40
2022-10-28T02:48:45.372Z,16.10
2022-10-28T02:54:51.568Z,15.90
2022-10-28T03:00:53.420Z,15.80
2022-10-28T03:06:55.221Z,15.70
2022-10-28T03:12:56.845Z,15.70
2022-10-28T03:18:58.525Z,15.80
2022-10-28T03:25:00.293Z,15.40
2022-10-28T03:31:01.982Z,15.20
2022-10-28T03:37:03.638Z,15.10
2022-10-28T03:43:05.395Z,15.10
2022-10-28T03:49:07.093Z,15.10
2022-10-28T03:55:08.830Z,15.00
2022-10-28T04:01:10.554Z,15.00
2022-10-28T04:07:12.242Z,15.70
2022-10-28T04:13:13.949Z,16.10
2022-10-28T04:19:15.715Z,16.60
2022-10-28T04:25:17.716Z,16.80
2022-10-28T04:31:19.442Z,16.60
2022-10-28T04:37:21.241Z,16.90
2022-10-28T04:43:22.895Z,17.00
2022-10-28T04:49:24.585Z,17.10
2022-10-28T04:55:26.241Z,17.00
2022-10-28T05:01:28.027Z,17.00
2022-10-28T05:07:30.014Z,16.90
2022-10-28T05:13:31.640Z,16.60
2022-10-28T05:19:33.354Z,16.20
2022-10-28T05:25:35.088Z,16.10
2022-10-28T05:31:36.942Z,16.40
2022-10-28T05:37:38.630Z,16.50
2022-10-28T05:43:40.285Z,16.60
2022-10-28T05:49:41.985Z,16.80
2022-10-28T05:55:46.880Z,16.90
2022-10-28T06:01:49.759Z,17.00
2022-10-28T06:07:51.481Z,17.10
2022-10-28T06:13:52.479Z,17.10
2022-10-28T06:19:54.200Z,17.10
2022-10-28T06:31:59.360Z,17.10
2022-10-28T06:38:02.886Z,17.10
2022-10-28T06:44:06.484Z,17.10
2022-10-28T06:50:09.952Z,17.00
2022-10-28T06:56:11.602Z,16.90
2022-10-28T07:02:13.537Z,16.90
2022-10-28T07:08:15.432Z,17.10
2022-10-28T07:14:17.426Z,17.20
2022-10-28T07:20:19.068Z,17.20
2022-10-28T07:26:20.814Z,17.30
2022-10-28T07:32:22.630Z,17.50
2022-10-28T07:38:24.522Z,17.60
2022-10-28T07:44:26.121Z,17.60
2022-10-28T07:50:27.806Z,17.70
2022-10-28T07:56:29.544Z,17.60
2022-10-28T08:02:31.295Z,17.80
2022-10-28T08:08:33.048Z,18.00
2022-10-28T08:14:35.018Z,18.30
2022-10-28T08:20:36.667Z,18.50
2022-10-28T08:26:38.474Z,18.70
2022-10-28T08:32:40.134Z,18.90
2022-10-28T08:38:46.052Z,19.10
2022-10-28T08:45:03.301Z,19.30
2022-10-28T08:51:21.651Z,19.40
2022-10-28T08:57:32.794Z,19.50
2022-10-28T09:03:39.298Z,19.60
2022-10-28T09:09:41.204Z,19.70
2022-10-28T09:15:48.763Z,19.80
2022-10-28T09:21:52.980Z,19.90
2022-10-28T09:28:00.725Z,20.00
2022-10-28T09:34:17.698Z,20.10
2022-10-28T09:40:21.751Z,20.10
2022-10-28T09:46:25.282Z,20.30
2022-10-28T09:52:39.064Z,20.50
2022-10-28T09:58:42.584Z,20.60
2022-10-28T10:04:44.428Z,20.80
2022-10-28T10:10:46.086Z,21.20
2022-10-28T10:16:55.310Z,21.40
2022-10-28T10:22:57.276Z,21.60
2022-10-28T10:28:59.541Z,21.80
2022-10-28T10:35:15.454Z,22.00
2022-10-28T10:41:33.318Z,22.10
2022-10-28T10:47:35.073Z,22.30
2022-10-28T10:53:38.054Z,22.40
2022-10-28T10:59:39.865Z,22.50
2022-10-28T11:05:55.010Z,22.60
2022-10-28T11:12:01.852Z,22.50
2022-10-28T11:18:16.853Z,22.40
2022-10-28T11:24:27.681Z,22.10
2022-10-28T11:30:36.773Z,22.20
2022-10-28T11:36:48.013Z,22.10
2022-10-28T11:42:55.874Z,22.00
2022-10-28T11:49:22.095Z,22.20
2022-10-28T11:55:34.194Z,22.20
2022-10-28T12:01:45.649Z,22.50
2022-10-28T12:07:54.643Z,22.60
2022-10-28T12:14:13.833Z,22.70
2022-10-28T12:20:15.715Z,22.90
2022-10-28T12:26:18.869Z,23.00
2022-10-28T12:32:24.640Z,23.00
2022-10-28T12:38:30.803Z,22.80
2022-10-28T12:44:33.406Z,22.60
2022-10-28T12:50:40.303Z,22.50
2022-10-28T12:56:49.276Z,22.40
2022-10-28T13:02:54.887Z,22.40
2022-10-28T13:09:22.311Z,22.40
2022-10-28T13:15:36.539Z,22.40
2022-10-28T13:21:38.467Z,22.30
2022-10-28T13:27:40.422Z,22.20
2022-10-28T13:33:59.107Z,22.30
2022-10-28T13:40:00.853Z,22.30
2022-10-28T13:46:02.540Z,22.40
2022-10-28T13:52:07.344Z,22.30
2022-10-28T13:58:20.563Z,22.30
2022-10-28T14:04:41.499Z,22.30
2022-10-28T14:10:58.474Z,22.30
2022-10-28T14:17:00.429Z,22.20
2022-10-28T14:23:22.025Z,22.20
2022-10-28T14:29:27.452Z,22.10
2022-10-28T14:35:47.978Z,22.00
2022-10-28T14:41:55.333Z,21.90
2022-10-28T14:48:23.683Z,21.70
2022-10-28T14:54:38.029Z,21.60
2022-10-28T15:00:46.046Z,21.50
2022-10-28T15:06:50.376Z,21.30
2022-10-28T15:12:54.215Z,21.30
2022-10-28T15:18:56.125Z,21.10
2022-10-28T15:24:59.364Z,21.20
2022-10-28T15:31:01.038Z,21.30
2022-10-28T15:37:02.863Z,21.30
2022-10-28T15:43:05.775Z,21.30
2022-10-28T15:49:27.420Z,21.30
2022-10-28T15:55:35.843Z,21.20
2022-10-28T16:01:49.469Z,21.20
2022-10-28T16:07:51.317Z,21.00
2022-10-28T16:13:53.163Z,20.90
2022-10-28T16:20:18.195Z,20.70
2022-10-28T16:26:20.787Z,20.50
2022-10-28T16:32:35.410Z,20.50
2022-10-28T16:38:37.565Z,20.60
2022-10-28T16:44:39.773Z,20.60
2022-10-28T16:50:43.849Z,20.70
2022-10-28T16:56:45.549Z,20.80
2022-10-28T17:02:50.881Z,20.90
2022-10-28T17:09:08.230Z,20.90
2022-10-28T17:15:10.432Z,20.90
2022-10-28T17:21:12.328Z,20.90
2022-10-28T17:27:14.263Z,21.00
2022-10-28T17:33:16.055Z,21.00
2022-10-28T17:39:21.915Z,20.80
2022-10-28T17:45:26.672Z,20.60
2022-10-28T17:51:28.876Z,20.40
2022-10-28T17:57:30.697Z,20.10
2022-10-28T18:03:38.120Z,20.00
2022-10-28T18:09:42.040Z,20.00
2022-10-28T18:15:43.692Z,20.00
2022-10-28T18:21:45.457Z,19.80
2022-10-28T18:27:47.071Z,19.70
2022-10-28T18:33:49.247Z,19.60
2022-10-28T18:39:50.888Z,19.50
2022-10-28T18:45:52.735Z,19.50
2022-10-28T18:51:54.426Z,19.40
2022-10-28T18:57:56.113Z,19.30
2022-10-28T19:03:58.860Z,19.20
2022-10-28T19:10:00.498Z,19.00
2022-10-28T19:16:02.410Z,19.00
2022-10-28T19:22:04.995Z,18.90
2022-10-28T19:28:06.706Z,18.80
2022-10-28T19:34:10.777Z,18.90
2022-10-28T19:40:12.476Z,18.80
2022-10-28T19:46:15.651Z,18.70
2022-10-28T19:52:17.326Z,18.60
2022-10-28T19:58:18.992Z,18.60
2022-10-28T20:04:21.587Z,18.60
2022-10-28T20:10:23.333Z,18.50
2022-10-28T20:16:25.399Z,18.40
2022-10-28T20:22:27.063Z,18.30
2022-10-28T20:28:28.712Z,18.20
2022-10-28T20:34:30.404Z,18.20
2022-10-28T20:40:33.185Z,18.20
2022-10-28T20:46:35.058Z,18.10
2022-10-28T20:52:36.723Z,18.10
2022-10-28T20:58:38.453Z,17.90
2022-10-28T21:04:40.070Z,17.90
2022-10-28T21:10:41.719Z,17.90
2022-10-28T21:16:43.485Z,17.80
2022-10-28T21:22:45.131Z,17.70
2022-10-28T21:28:51.838Z,17.50
2022-10-28T21:34:53.613Z,17.50
2022-10-28T21:40:59.263Z,17.40
2022-10-28T21:47:01.633Z,17.40
2022-10-28T21:53:04.134Z,17.40
2022-10-28T21:59:06.034Z,17.20
2022-10-28T22:05:07.756Z,17.10
2022-10-28T22:11:13.766Z,17.10
2022-10-28T22:17:15.460Z,17.10
2022-10-28T22:23:17.283Z,17.00
2022-10-28T22:29:18.944Z,17.00
2022-10-28T22:35:20.549Z,17.00
2022-10-28T22:41:29.279Z,17.10
2022-10-28T22:47:30.989Z,17.20
2022-10-28T22:53:33.008Z,17.30
2022-10-28T22:59:34.610Z,17.30
2022-10-28T23:05:36.258Z,17.40
2022-10-28T23:11:38.042Z,17.40
2022-10-28T23:17:39.674Z,17.40
2022-10-28T23:23:41.776Z,17.30
2022-10-28T23:29:43.420Z,17.20
2022-10-28T23:35:45.119Z,17.00
2022-10-28T23:41:47.671Z,16.90
2022-10-28T23:47:49.272Z,16.90
2022-10-28T23:53:51.015Z,16.90
2022-10-28T23:59:54.109Z,16.90
